sensor_id;sensor_type;location;lat;lon;timestamp;P1;durP1;ratioP1;P2;durP2;ratioP2
57191;SDS011;43052;52.588;13.396;2022-10-16T00:00:30;4.32;;;3.22;;
57191;SDS011;43052;52.588;13.396;2022-10-16T00:02:56;3.63;;;3.10;;
57191;SDS011;43052;52.588;13.396;2022-10-16T00:05:21;5.65;;;3.30;;
57191;SDS011;43052;52.588;13.396;2022-10-16T00:07:46;4.78;;;3.00;;
57191;SDS011;43052;52.588;13.396;2022-10-16T00:10:12;3.75;;;2.78;;
57191;SDS011;43052;52.588;13.396;2022-10-16T00:12:37;4.45;;;2.80;;
57191;SDS011;43052;52.588;13.396;2022-10-16T00:15:02;6.35;;;3.42;;
57191;SDS011;43052;52.588;13.396;2022-10-16T00:17:28;4.22;;;3.22;;
57191;SDS011;43052;52.588;13.396;2022-10-16T00:19:54;4.00;;;3.13;;
57191;SDS011;43052;52.588;13.396;2022-10-16T00:22:19;4.00;;;2.88;;
57191;SDS011;43052;52.588;13.396;2022-10-16T00:24:45;5.35;;;3.58;;
57191;SDS011;43052;52.588;13.396;2022-10-16T00:27:10;4.63;;;3.30;;
57191;SDS011;43052;52.588;13.396;2022-10-16T00:29:35;4.10;;;2.97;;
57191;SDS011;43052;52.588;13.396;2022-10-16T00:32:00;4.30;;;3.30;;
57191;SDS011;43052;52.588;13.396;2022-10-16T00:34:26;4.18;;;3.00;;
57191;SDS011;43052;52.588;13.396;2022-10-16T00:36:51;3.70;;;2.95;;
57191;SDS011;43052;52.588;13.396;2022-10-16T00:39:16;3.45;;;2.78;;
57191;SDS011;43052;52.588;13.396;2022-10-16T00:41:41;4.60;;;3.15;;
57191;SDS011;43052;52.588;13.396;2022-10-16T00:47:11;3.70;;;3.00;;
57191;SDS011;43052;52.588;13.396;2022-10-16T00:49:42;3.97;;;3.00;;
57191;SDS011;43052;52.588;13.396;2022-10-16T00:52:07;4.85;;;3.03;;
57191;SDS011;43052;52.588;13.396;2022-10-16T00:54:33;3.65;;;2.83;;
57191;SDS011;43052;52.588;13.396;2022-10-16T00:57:00;4.53;;;3.10;;
57191;SDS011;43052;52.588;13.396;2022-10-16T00:59:37;4.97;;;3.10;;
57191;SDS011;43052;52.588;13.396;2022-10-16T01:02:05;4.22;;;2.67;;
57191;SDS011;43052;52.588;13.396;2022-10-16T01:04:36;4.68;;;2.85;;
57191;SDS011;43052;52.588;13.396;2022-10-16T01:10:25;4.20;;;2.95;;
57191;SDS011;43052;52.588;13.396;2022-10-16T01:13:04;4.15;;;2.85;;
57191;SDS011;43052;52.588;13.396;2022-10-16T01:15:34;4.05;;;2.90;;
57191;SDS011;43052;52.588;13.396;2022-10-16T01:18:09;2.80;;;2.50;;
57191;SDS011;43052;52.588;13.396;2022-10-16T01:26:09;3.67;;;2.90;;
57191;SDS011;43052;52.588;13.396;2022-10-16T01:28:46;3.35;;;2.80;;
57191;SDS011;43052;52.588;13.396;2022-10-16T01:31:14;3.33;;;2.80;;
57191;SDS011;43052;52.588;13.396;2022-10-16T01:33:48;4.13;;;2.72;;
57191;SDS011;43052;52.588;13.396;2022-10-16T01:38:49;4.18;;;3.08;;
57191;SDS011;43052;52.588;13.396;2022-10-16T01:41:21;3.45;;;2.85;;
57191;SDS011;43052;52.588;13.396;2022-10-16T01:43:55;5.15;;;2.85;;
57191;SDS011;43052;52.588;13.396;2022-10-16T01:46:33;3.97;;;2.83;;
57191;SDS011;43052;52.588;13.396;2022-10-16T01:49:00;4.88;;;2.75;;
57191;SDS011;43052;52.588;13.396;2022-10-16T01:51:28;3.08;;;2.58;;
57191;SDS011;43052;52.588;13.396;2022-10-16T01:53:55;4.28;;;3.08;;
57191;SDS011;43052;52.588;13.396;2022-10-16T01:56:24;4.53;;;2.90;;
57191;SDS011;43052;52.588;13.396;2022-10-16T01:59:12;3.55;;;2.78;;
57191;SDS011;43052;52.588;13.396;2022-10-16T02:01:38;2.97;;;2.65;;
57191;SDS011;43052;52.588;13.396;2022-10-16T02:04:09;3.78;;;2.92;;
57191;SDS011;43052;52.588;13.396;2022-10-16T02:06:40;4.80;;;2.80;;
57191;SDS011;43052;52.588;13.396;2022-10-16T02:09:05;4.35;;;2.70;;
57191;SDS011;43052;52.588;13.396;2022-10-16T02:11:31;3.25;;;2.78;;
57191;SDS011;43052;52.588;13.396;2022-10-16T02:14:00;3.17;;;2.53;;
57191;SDS011;43052;52.588;13.396;2022-10-16T02:16:35;3.40;;;2.65;;
57191;SDS011;43052;52.588;13.396;2022-10-16T02:19:02;4.73;;;2.77;;
57191;SDS011;43052;52.588;13.396;2022-10-16T02:21:30;3.03;;;2.63;;
57191;SDS011;43052;52.588;13.396;2022-10-16T02:27:03;4.05;;;2.70;;
57191;SDS011;43052;52.588;13.396;2022-10-16T02:29:36;3.97;;;2.63;;
57191;SDS011;43052;52.588;13.396;2022-10-16T02:32:06;4.57;;;2.65;;
57191;SDS011;43052;52.588;13.396;2022-10-16T02:34:34;3.72;;;2.47;;
57191;SDS011;43052;52.588;13.396;2022-10-16T02:37:01;2.78;;;2.53;;
57191;SDS011;43052;52.588;13.396;2022-10-16T02:39:29;3.15;;;2.50;;
57191;SDS011;43052;52.588;13.396;2022-10-16T02:41:55;3.72;;;2.78;;
57191;SDS011;43052;52.588;13.396;2022-10-16T02:44:20;5.32;;;2.92;;
57191;SDS011;43052;52.588;13.396;2022-10-16T02:46:46;4.43;;;2.47;;
57191;SDS011;43052;52.588;13.396;2022-10-16T02:49:11;3.10;;;2.45;;
57191;SDS011;43052;52.588;13.396;2022-10-16T02:51:36;3.28;;;2.47;;
57191;SDS011;43052;52.588;13.396;2022-10-16T02:54:02;2.63;;;2.40;;
57191;SDS011;43052;52.588;13.396;2022-10-16T02:56:27;3.47;;;2.45;;
57191;SDS011;43052;52.588;13.396;2022-10-16T02:58:53;3.22;;;2.47;;
57191;SDS011;43052;52.588;13.396;2022-10-16T03:01:18;2.72;;;2.35;;
57191;SDS011;43052;52.588;13.396;2022-10-16T03:03:43;3.15;;;2.40;;
57191;SDS011;43052;52.588;13.396;2022-10-16T03:06:08;3.78;;;2.40;;
57191;SDS011;43052;52.588;13.396;2022-10-16T03:08:34;3.30;;;2.40;;
57191;SDS011;43052;52.588;13.396;2022-10-16T03:10:59;2.40;;;2.10;;
57191;SDS011;43052;52.588;13.396;2022-10-16T03:13:24;3.55;;;2.53;;
57191;SDS011;43052;52.588;13.396;2022-10-16T03:15:49;3.03;;;2.72;;
57191;SDS011;43052;52.588;13.396;2022-10-16T03:18:15;2.83;;;2.42;;
57191;SDS011;43052;52.588;13.396;2022-10-16T03:20:41;4.03;;;2.63;;
57191;SDS011;43052;52.588;13.396;2022-10-16T03:23:07;2.92;;;2.22;;
57191;SDS011;43052;52.588;13.396;2022-10-16T03:25:33;3.03;;;2.40;;
57191;SDS011;43052;52.588;13.396;2022-10-16T03:27:58;3.47;;;2.53;;
57191;SDS011;43052;52.588;13.396;2022-10-16T03:30:23;3.65;;;2.60;;
57191;SDS011;43052;52.588;13.396;2022-10-16T03:32:49;3.17;;;2.60;;
57191;SDS011;43052;52.588;13.396;2022-10-16T03:35:18;3.40;;;2.85;;
57191;SDS011;43052;52.588;13.396;2022-10-16T03:37:44;4.22;;;3.00;;
57191;SDS011;43052;52.588;13.396;2022-10-16T03:40:09;3.97;;;2.70;;
57191;SDS011;43052;52.588;13.396;2022-10-16T03:42:34;4.15;;;2.90;;
57191;SDS011;43052;52.588;13.396;2022-10-16T03:45:00;4.72;;;2.90;;
57191;SDS011;43052;52.588;13.396;2022-10-16T03:47:25;3.95;;;3.22;;
57191;SDS011;43052;52.588;13.396;2022-10-16T03:49:50;4.15;;;3.05;;
57191;SDS011;43052;52.588;13.396;2022-10-16T03:52:16;5.07;;;3.22;;
57191;SDS011;43052;52.588;13.396;2022-10-16T03:54:41;4.43;;;3.05;;
57191;SDS011;43052;52.588;13.396;2022-10-16T03:57:07;5.72;;;2.97;;
57191;SDS011;43052;52.588;13.396;2022-10-16T03:59:32;4.82;;;3.00;;
57191;SDS011;43052;52.588;13.396;2022-10-16T04:01:57;4.20;;;3.05;;
57191;SDS011;43052;52.588;13.396;2022-10-16T04:04:22;3.58;;;2.90;;
57191;SDS011;43052;52.588;13.396;2022-10-16T04:06:48;3.58;;;2.97;;
57191;SDS011;43052;52.588;13.396;2022-10-16T04:09:13;4.18;;;3.05;;
57191;SDS011;43052;52.588;13.396;2022-10-16T04:11:38;4.45;;;3.22;;
57191;SDS011;43052;52.588;13.396;2022-10-16T04:14:04;4.18;;;3.05;;
57191;SDS011;43052;52.588;13.396;2022-10-16T04:16:29;3.50;;;2.83;;
57191;SDS011;43052;52.588;13.396;2022-10-16T04:18:54;4.80;;;3.58;;
57191;SDS011;43052;52.588;13.396;2022-10-16T04:21:20;3.97;;;3.13;;
57191;SDS011;43052;52.588;13.396;2022-10-16T04:23:45;5.03;;;3.45;;
57191;SDS011;43052;52.588;13.396;2022-10-16T04:26:10;4.75;;;3.50;;
57191;SDS011;43052;52.588;13.396;2022-10-16T04:28:36;3.65;;;3.10;;
57191;SDS011;43052;52.588;13.396;2022-10-16T04:31:05;4.10;;;2.80;;
57191;SDS011;43052;52.588;13.396;2022-10-16T04:33:31;4.35;;;3.13;;
57191;SDS011;43052;52.588;13.396;2022-10-16T04:35:57;5.78;;;3.78;;
57191;SDS011;43052;52.588;13.396;2022-10-16T04:38:23;4.90;;;3.63;;
57191;SDS011;43052;52.588;13.396;2022-10-16T04:40:48;5.53;;;3.58;;
57191;SDS011;43052;52.588;13.396;2022-10-16T04:43:13;3.83;;;3.40;;
57191;SDS011;43052;52.588;13.396;2022-10-16T04:45:39;6.65;;;3.47;;
57191;SDS011;43052;52.588;13.396;2022-10-16T04:48:04;5.32;;;3.50;;
57191;SDS011;43052;52.588;13.396;2022-10-16T04:50:29;4.50;;;3.42;;
57191;SDS011;43052;52.588;13.396;2022-10-16T04:52:54;8.55;;;3.85;;
57191;SDS011;43052;52.588;13.396;2022-10-16T04:55:20;5.03;;;3.97;;
57191;SDS011;43052;52.588;13.396;2022-10-16T04:57:45;5.45;;;3.80;;
57191;SDS011;43052;52.588;13.396;2022-10-16T05:00:11;5.18;;;4.00;;
57191;SDS011;43052;52.588;13.396;2022-10-16T05:02:36;5.30;;;3.60;;
57191;SDS011;43052;52.588;13.396;2022-10-16T05:05:02;5.03;;;3.92;;
57191;SDS011;43052;52.588;13.396;2022-10-16T05:07:27;6.28;;;4.93;;
57191;SDS011;43052;52.588;13.396;2022-10-16T05:09:52;5.80;;;4.57;;
57191;SDS011;43052;52.588;13.396;2022-10-16T05:12:18;6.80;;;5.07;;
57191;SDS011;43052;52.588;13.396;2022-10-16T05:14:43;5.85;;;4.13;;
57191;SDS011;43052;52.588;13.396;2022-10-16T05:17:08;5.47;;;4.03;;
57191;SDS011;43052;52.588;13.396;2022-10-16T05:19:34;5.43;;;3.63;;
57191;SDS011;43052;52.588;13.396;2022-10-16T05:21:59;5.07;;;3.85;;
57191;SDS011;43052;52.588;13.396;2022-10-16T05:24:25;4.65;;;3.80;;
57191;SDS011;43052;52.588;13.396;2022-10-16T05:26:50;6.75;;;4.07;;
57191;SDS011;43052;52.588;13.396;2022-10-16T05:29:16;6.03;;;3.53;;
57191;SDS011;43052;52.588;13.396;2022-10-16T05:31:41;6.30;;;3.67;;
57191;SDS011;43052;52.588;13.396;2022-10-16T05:34:06;5.43;;;3.90;;
57191;SDS011;43052;52.588;13.396;2022-10-16T05:36:32;5.15;;;3.67;;
57191;SDS011;43052;52.588;13.396;2022-10-16T05:38:57;7.60;;;4.03;;
57191;SDS011;43052;52.588;13.396;2022-10-16T05:41:22;5.75;;;3.85;;
57191;SDS011;43052;52.588;13.396;2022-10-16T05:43:50;5.35;;;4.03;;
57191;SDS011;43052;52.588;13.396;2022-10-16T05:46:16;6.07;;;4.35;;
57191;SDS011;43052;52.588;13.396;2022-10-16T05:48:41;5.22;;;3.97;;
57191;SDS011;43052;52.588;13.396;2022-10-16T05:51:08;6.15;;;4.13;;
57191;SDS011;43052;52.588;13.396;2022-10-16T05:53:36;5.13;;;3.70;;
57191;SDS011;43052;52.588;13.396;2022-10-16T05:56:02;5.35;;;3.45;;
57191;SDS011;43052;52.588;13.396;2022-10-16T05:58:29;5.10;;;3.97;;
57191;SDS011;43052;52.588;13.396;2022-10-16T06:01:00;4.63;;;3.75;;
57191;SDS011;43052;52.588;13.396;2022-10-16T06:03:31;4.35;;;3.47;;
57191;SDS011;43052;52.588;13.396;2022-10-16T06:05:57;4.78;;;3.45;;
57191;SDS011;43052;52.588;13.396;2022-10-16T06:08:22;4.97;;;3.85;;
57191;SDS011;43052;52.588;13.396;2022-10-16T06:10:48;6.35;;;3.88;;
57191;SDS011;43052;52.588;13.396;2022-10-16T06:13:14;5.03;;;3.35;;
57191;SDS011;43052;52.588;13.396;2022-10-16T06:15:41;5.75;;;3.78;;
57191;SDS011;43052;52.588;13.396;2022-10-16T06:18:07;4.70;;;3.70;;
57191;SDS011;43052;52.588;13.396;2022-10-16T06:20:33;5.07;;;3.58;;
57191;SDS011;43052;52.588;13.396;2022-10-16T06:22:59;4.93;;;3.55;;
57191;SDS011;43052;52.588;13.396;2022-10-16T06:25:24;5.00;;;3.60;;
57191;SDS011;43052;52.588;13.396;2022-10-16T06:27:49;4.57;;;3.50;;
57191;SDS011;43052;52.588;13.396;2022-10-16T06:30:15;5.50;;;3.67;;
57191;SDS011;43052;52.588;13.396;2022-10-16T06:32:40;5.10;;;3.40;;
57191;SDS011;43052;52.588;13.396;2022-10-16T06:35:05;4.85;;;3.33;;
57191;SDS011;43052;52.588;13.396;2022-10-16T06:37:30;4.90;;;3.47;;
57191;SDS011;43052;52.588;13.396;2022-10-16T06:39:56;5.88;;;4.13;;
57191;SDS011;43052;52.588;13.396;2022-10-16T06:42:21;6.00;;;3.90;;
57191;SDS011;43052;52.588;13.396;2022-10-16T06:44:46;6.38;;;4.47;;
57191;SDS011;43052;52.588;13.396;2022-10-16T06:47:11;7.38;;;4.80;;
57191;SDS011;43052;52.588;13.396;2022-10-16T06:49:37;8.70;;;5.10;;
57191;SDS011;43052;52.588;13.396;2022-10-16T06:52:02;5.60;;;4.50;;
57191;SDS011;43052;52.588;13.396;2022-10-16T06:54:28;5.80;;;4.63;;
57191;SDS011;43052;52.588;13.396;2022-10-16T06:56:53;6.15;;;4.22;;
57191;SDS011;43052;52.588;13.396;2022-10-16T06:59:19;9.32;;;8.20;;
57191;SDS011;43052;52.588;13.396;2022-10-16T07:01:45;9.30;;;7.35;;
57191;SDS011;43052;52.588;13.396;2022-10-16T07:04:10;8.00;;;6.60;;
57191;SDS011;43052;52.588;13.396;2022-10-16T07:06:36;8.27;;;5.30;;
57191;SDS011;43052;52.588;13.396;2022-10-16T07:09:05;7.38;;;6.32;;
57191;SDS011;43052;52.588;13.396;2022-10-16T07:11:32;6.65;;;5.45;;
57191;SDS011;43052;52.588;13.396;2022-10-16T07:13:57;8.70;;;5.57;;
57191;SDS011;43052;52.588;13.396;2022-10-16T07:16:24;7.15;;;5.57;;
57191;SDS011;43052;52.588;13.396;2022-10-16T07:18:51;6.18;;;4.93;;
57191;SDS011;43052;52.588;13.396;2022-10-16T07:21:22;6.88;;;4.50;;
57191;SDS011;43052;52.588;13.396;2022-10-16T07:23:51;5.25;;;3.97;;
57191;SDS011;43052;52.588;13.396;2022-10-16T07:26:17;5.70;;;4.53;;
57191;SDS011;43052;52.588;13.396;2022-10-16T07:28:43;5.85;;;4.20;;
57191;SDS011;43052;52.588;13.396;2022-10-16T07:31:10;5.20;;;4.10;;
57191;SDS011;43052;52.588;13.396;2022-10-16T07:33:37;5.30;;;3.80;;
57191;SDS011;43052;52.588;13.396;2022-10-16T07:36:04;4.65;;;3.42;;
57191;SDS011;43052;52.588;13.396;2022-10-16T07:38:29;4.63;;;3.45;;
57191;SDS011;43052;52.588;13.396;2022-10-16T07:40:58;6.53;;;3.35;;
57191;SDS011;43052;52.588;13.396;2022-10-16T07:43:28;3.67;;;3.17;;
57191;SDS011;43052;52.588;13.396;2022-10-16T07:45:54;3.55;;;2.80;;
57191;SDS011;43052;52.588;13.396;2022-10-16T07:48:20;4.57;;;3.10;;
57191;SDS011;43052;52.588;13.396;2022-10-16T07:50:46;3.70;;;2.75;;
57191;SDS011;43052;52.588;13.396;2022-10-16T07:53:12;4.57;;;3.10;;
57191;SDS011;43052;52.588;13.396;2022-10-16T07:55:38;4.53;;;3.80;;
57191;SDS011;43052;52.588;13.396;2022-10-16T07:58:03;10.55;;;5.25;;
57191;SDS011;43052;52.588;13.396;2022-10-16T08:00:30;7.05;;;4.10;;
57191;SDS011;43052;52.588;13.396;2022-10-16T08:02:56;6.78;;;4.60;;
57191;SDS011;43052;52.588;13.396;2022-10-16T08:05:27;4.82;;;3.08;;
57191;SDS011;43052;52.588;13.396;2022-10-16T08:07:54;3.97;;;2.80;;
57191;SDS011;43052;52.588;13.396;2022-10-16T08:10:20;4.55;;;2.80;;
57191;SDS011;43052;52.588;13.396;2022-10-16T08:12:47;3.15;;;2.83;;
57191;SDS011;43052;52.588;13.396;2022-10-16T08:15:12;2.90;;;2.60;;
57191;SDS011;43052;52.588;13.396;2022-10-16T08:17:38;3.83;;;2.40;;
57191;SDS011;43052;52.588;13.396;2022-10-16T08:20:03;3.10;;;2.35;;
57191;SDS011;43052;52.588;13.396;2022-10-16T08:22:29;5.90;;;3.28;;
57191;SDS011;43052;52.588;13.396;2022-10-16T08:24:54;2.75;;;2.30;;
57191;SDS011;43052;52.588;13.396;2022-10-16T08:27:20;5.93;;;3.03;;
57191;SDS011;43052;52.588;13.396;2022-10-16T08:29:45;3.85;;;2.90;;
57191;SDS011;43052;52.588;13.396;2022-10-16T08:32:10;4.30;;;2.40;;
57191;SDS011;43052;52.588;13.396;2022-10-16T08:34:35;3.13;;;2.10;;
57191;SDS011;43052;52.588;13.396;2022-10-16T08:37:01;3.00;;;2.30;;
57191;SDS011;43052;52.588;13.396;2022-10-16T08:39:26;3.05;;;2.22;;
57191;SDS011;43052;52.588;13.396;2022-10-16T08:44:54;4.82;;;2.42;;
57191;SDS011;43052;52.588;13.396;2022-10-16T08:47:45;2.47;;;2.13;;
57191;SDS011;43052;52.588;13.396;2022-10-16T08:50:21;2.70;;;2.10;;
57191;SDS011;43052;52.588;13.396;2022-10-16T08:52:49;3.03;;;2.10;;
57191;SDS011;43052;52.588;13.396;2022-10-16T08:55:32;4.18;;;2.50;;
57191;SDS011;43052;52.588;13.396;2022-10-16T08:58:17;3.33;;;2.37;;
57191;SDS011;43052;52.588;13.396;2022-10-16T09:00:48;3.83;;;2.10;;
57191;SDS011;43052;52.588;13.396;2022-10-16T09:06:10;2.40;;;2.10;;
57191;SDS011;43052;52.588;13.396;2022-10-16T09:11:43;3.22;;;1.80;;
57191;SDS011;43052;52.588;13.396;2022-10-16T09:17:18;2.58;;;1.77;;
57191;SDS011;43052;52.588;13.396;2022-10-16T09:19:55;3.53;;;1.73;;
57191;SDS011;43052;52.588;13.396;2022-10-16T09:22:28;1.83;;;1.70;;
57191;SDS011;43052;52.588;13.396;2022-10-16T09:24:57;2.42;;;1.98;;
57191;SDS011;43052;52.588;13.396;2022-10-16T09:27:25;1.70;;;1.60;;
57191;SDS011;43052;52.588;13.396;2022-10-16T09:29:51;2.15;;;1.70;;
57191;SDS011;43052;52.588;13.396;2022-10-16T09:32:17;2.85;;;1.75;;
57191;SDS011;43052;52.588;13.396;2022-10-16T09:34:47;2.03;;;1.90;;
57191;SDS011;43052;52.588;13.396;2022-10-16T09:37:17;1.98;;;1.60;;
57191;SDS011;43052;52.588;13.396;2022-10-16T09:39:44;2.08;;;1.70;;
57191;SDS011;43052;52.588;13.396;2022-10-16T09:42:17;1.70;;;1.60;;
57191;SDS011;43052;52.588;13.396;2022-10-16T09:44:52;2.58;;;1.75;;
57191;SDS011;43052;52.588;13.396;2022-10-16T09:47:19;2.47;;;2.05;;
57191;SDS011;43052;52.588;13.396;2022-10-16T09:49:55;1.98;;;1.45;;
57191;SDS011;43052;52.588;13.396;2022-10-16T09:52:23;1.52;;;1.42;;
57191;SDS011;43052;52.588;13.396;2022-10-16T09:54:56;2.45;;;2.25;;
57191;SDS011;43052;52.588;13.396;2022-10-16T09:57:23;1.80;;;1.65;;
57191;SDS011;43052;52.588;13.396;2022-10-16T09:59:52;2.08;;;1.85;;
57191;SDS011;43052;52.588;13.396;2022-10-16T10:02:23;1.98;;;1.70;;
57191;SDS011;43052;52.588;13.396;2022-10-16T10:04:54;1.70;;;1.60;;
57191;SDS011;43052;52.588;13.396;2022-10-16T10:07:24;2.25;;;1.52;;
57191;SDS011;43052;52.588;13.396;2022-10-16T10:09:51;1.63;;;1.20;;
57191;SDS011;43052;52.588;13.396;2022-10-16T10:12:19;1.85;;;1.60;;
57191;SDS011;43052;52.588;13.396;2022-10-16T10:14:47;3.13;;;1.40;;
57191;SDS011;43052;52.588;13.396;2022-10-16T10:17:16;1.90;;;1.30;;
57191;SDS011;43052;52.588;13.396;2022-10-16T10:25:12;2.28;;;1.60;;
57191;SDS011;43052;52.588;13.396;2022-10-16T10:27:47;1.52;;;1.40;;
57191;SDS011;43052;52.588;13.396;2022-10-16T10:30:27;2.80;;;1.50;;
57191;SDS011;43052;52.588;13.396;2022-10-16T10:33:11;2.28;;;1.70;;
57191;SDS011;43052;52.588;13.396;2022-10-16T10:35:52;1.83;;;1.50;;
57191;SDS011;43052;52.588;13.396;2022-10-16T10:38:31;2.63;;;1.50;;
57191;SDS011;43052;52.588;13.396;2022-10-16T10:41:08;2.30;;;1.67;;
57191;SDS011;43052;52.588;13.396;2022-10-16T10:46:42;2.60;;;1.63;;
57191;SDS011;43052;52.588;13.396;2022-10-16T10:49:24;1.60;;;1.50;;
57191;SDS011;43052;52.588;13.396;2022-10-16T10:58:07;3.22;;;1.63;;
57191;SDS011;43052;52.588;13.396;2022-10-16T11:01:07;2.25;;;1.70;;
57191;SDS011;43052;52.588;13.396;2022-10-16T11:03:54;3.13;;;1.83;;
57191;SDS011;43052;52.588;13.396;2022-10-16T11:06:36;3.33;;;1.50;;
57191;SDS011;43052;52.588;13.396;2022-10-16T11:09:09;2.97;;;1.45;;
57191;SDS011;43052;52.588;13.396;2022-10-16T11:14:14;2.05;;;1.40;;
57191;SDS011;43052;52.588;13.396;2022-10-16T11:19:14;2.05;;;1.40;;
57191;SDS011;43052;52.588;13.396;2022-10-16T11:22:00;2.45;;;1.50;;
57191;SDS011;43052;52.588;13.396;2022-10-16T11:27:30;2.65;;;1.60;;
57191;SDS011;43052;52.588;13.396;2022-10-16T11:30:06;1.60;;;1.50;;
57191;SDS011;43052;52.588;13.396;2022-10-16T11:32:51;2.05;;;1.52;;
57191;SDS011;43052;52.588;13.396;2022-10-16T11:35:25;2.42;;;2.05;;
57191;SDS011;43052;52.588;13.396;2022-10-16T11:38:02;2.17;;;1.60;;
57191;SDS011;43052;52.588;13.396;2022-10-16T11:40:32;1.60;;;1.50;;
57191;SDS011;43052;52.588;13.396;2022-10-16T11:43:16;2.53;;;1.50;;
57191;SDS011;43052;52.588;13.396;2022-10-16T11:45:49;1.70;;;1.60;;
57191;SDS011;43052;52.588;13.396;2022-10-16T11:48:31;2.47;;;1.40;;
57191;SDS011;43052;52.588;13.396;2022-10-16T11:51:05;2.95;;;1.45;;
57191;SDS011;43052;52.588;13.396;2022-10-16T11:53:51;3.80;;;1.50;;
57191;SDS011;43052;52.588;13.396;2022-10-16T11:56:23;1.73;;;1.60;;
57191;SDS011;43052;52.588;13.396;2022-10-16T11:59:02;2.85;;;1.50;;
57191;SDS011;43052;52.588;13.396;2022-10-16T12:01:40;1.48;;;1.38;;
57191;SDS011;43052;52.588;13.396;2022-10-16T12:06:55;1.52;;;1.40;;
57191;SDS011;43052;52.588;13.396;2022-10-16T12:09:38;3.83;;;1.33;;
57191;SDS011;43052;52.588;13.396;2022-10-16T12:12:05;1.88;;;1.70;;
57191;SDS011;43052;52.588;13.396;2022-10-16T12:14:59;1.95;;;1.50;;
57191;SDS011;43052;52.588;13.396;2022-10-16T12:17:27;2.22;;;1.20;;
57191;SDS011;43052;52.588;13.396;2022-10-16T12:22:37;5.57;;;1.50;;
57191;SDS011;43052;52.588;13.396;2022-10-16T12:25:20;1.40;;;1.30;;
57191;SDS011;43052;52.588;13.396;2022-10-16T12:27:53;1.83;;;1.30;;
57191;SDS011;43052;52.588;13.396;2022-10-16T12:30:22;2.05;;;1.30;;
57191;SDS011;43052;52.588;13.396;2022-10-16T12:32:52;2.38;;;1.23;;
57191;SDS011;43052;52.588;13.396;2022-10-16T12:35:21;2.20;;;1.38;;
57191;SDS011;43052;52.588;13.396;2022-10-16T12:37:48;2.08;;;1.58;;
57191;SDS011;43052;52.588;13.396;2022-10-16T12:42:47;1.25;;;1.05;;
57191;SDS011;43052;52.588;13.396;2022-10-16T12:45:26;1.52;;;1.20;;
57191;SDS011;43052;52.588;13.396;2022-10-16T12:47:53;2.65;;;1.50;;
57191;SDS011;43052;52.588;13.396;2022-10-16T12:50:33;2.13;;;1.48;;
57191;SDS011;43052;52.588;13.396;2022-10-16T12:53:02;1.83;;;1.27;;
57191;SDS011;43052;52.588;13.396;2022-10-16T12:56:04;2.50;;;1.30;;
57191;SDS011;43052;52.588;13.396;2022-10-16T12:58:53;3.90;;;1.30;;
57191;SDS011;43052;52.588;13.396;2022-10-16T13:01:36;2.17;;;1.10;;
57191;SDS011;43052;52.588;13.396;2022-10-16T13:04:15;2.00;;;1.10;;
57191;SDS011;43052;52.588;13.396;2022-10-16T13:07:01;1.27;;;1.17;;
57191;SDS011;43052;52.588;13.396;2022-10-16T13:13:01;3.88;;;1.20;;
57191;SDS011;43052;52.588;13.396;2022-10-16T13:15:47;1.10;;;1.00;;
57191;SDS011;43052;52.588;13.396;2022-10-16T13:20:53;1.30;;;1.10;;
57191;SDS011;43052;52.588;13.396;2022-10-16T13:23:43;1.67;;;0.90;;
57191;SDS011;43052;52.588;13.396;2022-10-16T13:28:46;1.95;;;1.15;;
57191;SDS011;43052;52.588;13.396;2022-10-16T13:31:17;2.00;;;1.10;;
57191;SDS011;43052;52.588;13.396;2022-10-16T13:33:46;2.72;;;1.10;;
57191;SDS011;43052;52.588;13.396;2022-10-16T13:36:22;1.00;;;1.00;;
57191;SDS011;43052;52.588;13.396;2022-10-16T13:38:59;2.50;;;1.00;;
57191;SDS011;43052;52.588;13.396;2022-10-16T13:41:40;3.97;;;1.90;;
57191;SDS011;43052;52.588;13.396;2022-10-16T13:44:16;1.42;;;1.02;;
57191;SDS011;43052;52.588;13.396;2022-10-16T13:46:44;2.13;;;0.95;;
57191;SDS011;43052;52.588;13.396;2022-10-16T13:51:39;3.58;;;1.08;;
57191;SDS011;43052;52.588;13.396;2022-10-16T13:54:05;2.80;;;1.15;;
57191;SDS011;43052;52.588;13.396;2022-10-16T13:56:30;2.92;;;0.95;;
57191;SDS011;43052;52.588;13.396;2022-10-16T13:58:58;3.17;;;1.10;;
57191;SDS011;43052;52.588;13.396;2022-10-16T14:01:32;2.60;;;1.00;;
57191;SDS011;43052;52.588;13.396;2022-10-16T14:04:05;0.80;;;0.70;;
57191;SDS011;43052;52.588;13.396;2022-10-16T14:06:33;1.10;;;0.90;;
57191;SDS011;43052;52.588;13.396;2022-10-16T14:09:07;1.55;;;0.80;;
57191;SDS011;43052;52.588;13.396;2022-10-16T14:11:44;1.20;;;0.85;;
57191;SDS011;43052;52.588;13.396;2022-10-16T14:14:13;0.95;;;0.90;;
57191;SDS011;43052;52.588;13.396;2022-10-16T14:16:40;0.90;;;0.90;;
57191;SDS011;43052;52.588;13.396;2022-10-16T14:19:13;0.80;;;0.80;;
57191;SDS011;43052;52.588;13.396;2022-10-16T14:21:43;1.30;;;1.20;;
57191;SDS011;43052;52.588;13.396;2022-10-16T14:24:31;2.75;;;1.40;;
57191;SDS011;43052;52.588;13.396;2022-10-16T14:27:00;4.07;;;1.48;;
57191;SDS011;43052;52.588;13.396;2022-10-16T14:29:27;1.25;;;1.15;;
57191;SDS011;43052;52.588;13.396;2022-10-16T14:32:00;1.85;;;1.20;;
57191;SDS011;43052;52.588;13.396;2022-10-16T14:34:31;1.35;;;1.23;;
57191;SDS011;43052;52.588;13.396;2022-10-16T14:36:59;1.58;;;1.30;;
57191;SDS011;43052;52.588;13.396;2022-10-16T14:39:29;2.13;;;1.30;;
57191;SDS011;43052;52.588;13.396;2022-10-16T14:41:56;2.45;;;1.20;;
57191;SDS011;43052;52.588;13.396;2022-10-16T14:44:25;1.63;;;1.30;;
57191;SDS011;43052;52.588;13.396;2022-10-16T14:46:54;1.67;;;1.13;;
57191;SDS011;43052;52.588;13.396;2022-10-16T14:49:20;2.60;;;1.30;;
57191;SDS011;43052;52.588;13.396;2022-10-16T14:51:47;1.60;;;1.48;;
57191;SDS011;43052;52.588;13.396;2022-10-16T14:54:13;3.47;;;1.35;;
57191;SDS011;43052;52.588;13.396;2022-10-16T14:59:17;2.53;;;1.33;;
57191;SDS011;43052;52.588;13.396;2022-10-16T15:01:48;1.60;;;1.10;;
57191;SDS011;43052;52.588;13.396;2022-10-16T15:04:13;1.77;;;1.40;;
57191;SDS011;43052;52.588;13.396;2022-10-16T15:06:40;2.58;;;1.50;;
57191;SDS011;43052;52.588;13.396;2022-10-16T15:09:06;4.47;;;1.58;;
57191;SDS011;43052;52.588;13.396;2022-10-16T15:11:31;1.60;;;1.50;;
57191;SDS011;43052;52.588;13.396;2022-10-16T15:13:57;1.65;;;1.38;;
57191;SDS011;43052;52.588;13.396;2022-10-16T15:16:23;2.17;;;1.67;;
57191;SDS011;43052;52.588;13.396;2022-10-16T15:18:48;1.30;;;1.20;;
57191;SDS011;43052;52.588;13.396;2022-10-16T15:21:24;2.25;;;1.40;;
57191;SDS011;43052;52.588;13.396;2022-10-16T15:23:53;4.20;;;1.20;;
57191;SDS011;43052;52.588;13.396;2022-10-16T15:26:18;3.20;;;1.40;;
57191;SDS011;43052;52.588;13.396;2022-10-16T15:28:44;3.70;;;1.40;;
57191;SDS011;43052;52.588;13.396;2022-10-16T15:31:09;4.18;;;1.40;;
57191;SDS011;43052;52.588;13.396;2022-10-16T15:33:34;3.70;;;1.90;;
57191;SDS011;43052;52.588;13.396;2022-10-16T15:36:00;1.90;;;1.40;;
57191;SDS011;43052;52.588;13.396;2022-10-16T15:38:26;2.35;;;1.05;;
57191;SDS011;43052;52.588;13.396;2022-10-16T15:40:53;1.77;;;1.33;;
57191;SDS011;43052;52.588;13.396;2022-10-16T15:43:18;2.53;;;1.30;;
57191;SDS011;43052;52.588;13.396;2022-10-16T15:45:43;1.70;;;1.13;;
57191;SDS011;43052;52.588;13.396;2022-10-16T15:48:12;4.07;;;1.70;;
57191;SDS011;43052;52.588;13.396;2022-10-16T15:50:38;1.63;;;1.42;;
57191;SDS011;43052;52.588;13.396;2022-10-16T15:53:04;2.70;;;1.40;;
57191;SDS011;43052;52.588;13.396;2022-10-16T15:55:29;2.08;;;1.50;;
57191;SDS011;43052;52.588;13.396;2022-10-16T15:57:54;2.60;;;1.75;;